createdAt,value
2019-03-05T00:01:53.279Z,55.50
2019-03-05T00:04:23.013Z,55.60
2019-03-05T00:06:52.380Z,55.60
2019-03-05T00:09:21.751Z,55.30
2019-03-05T00:11:51.133Z,55.40
2019-03-05T00:14:22.147Z,55.60
2019-03-05T00:16:51.536Z,55.50
2019-03-05T00:19:21.641Z,55.40
2019-03-05T00:21:51.360Z,55.50
2019-03-05T00:25:12.685Z,55.50
2019-03-05T00:27:45.932Z,55.40
2019-03-05T00:30:46.911Z,55.40
2019-03-05T00:33:23.758Z,55.50
2019-03-05T00:36:12.869Z,55.60
2019-03-05T00:39:07.275Z,55.50
2019-03-05T00:41:44.025Z,55.60
2019-03-05T00:44:50.578Z,55.50
2019-03-05T00:47:53.898Z,55.60
2019-03-05T00:50:48.672Z,55.70
2019-03-05T00:53:33.974Z,55.60
2019-03-05T00:56:19.087Z,55.60
2019-03-05T00:59:20.077Z,55.60
2019-03-05T01:01:56.699Z,55.70
2019-03-05T01:04:48.491Z,55.60
2019-03-05T01:07:17.998Z,55.50
2019-03-05T01:09:47.726Z,55.40
2019-03-05T01:12:17.109Z,55.20
2019-03-05T01:14:46.708Z,55.00
2019-03-05T01:17:16.079Z,54.90
2019-03-05T01:19:45.960Z,55.10
2019-03-05T01:22:15.626Z,54.80
2019-03-05T01:24:45.369Z,54.70
2019-03-05T01:27:14.771Z,54.70
2019-03-05T01:29:44.140Z,54.50
2019-03-05T01:32:24.129Z,54.50
2019-03-05T01:35:01.132Z,54.40
2019-03-05T01:37:30.504Z,54.40
2019-03-05T01:40:01.544Z,54.50
2019-03-05T01:42:30.929Z,54.40
2019-03-05T01:45:00.296Z,54.30
2019-03-05T01:47:29.770Z,54.40
2019-03-05T01:49:59.159Z,54.40
2019-03-05T01:52:28.544Z,54.40
2019-03-05T01:54:57.921Z,54.40
2019-03-05T01:57:27.288Z,54.50
2019-03-05T01:59:56.641Z,54.60
2019-03-05T02:02:26.202Z,54.60
2019-03-05T02:04:55.548Z,54.70
2019-03-05T02:07:25.366Z,54.50
2019-03-05T02:09:54.748Z,54.80
2019-03-05T02:12:24.121Z,54.90
2019-03-05T02:14:53.493Z,54.90
2019-03-05T02:17:22.882Z,55.00
2019-03-05T02:19:52.717Z,55.00
2019-03-05T02:22:27.253Z,55.10
2019-03-05T02:25:19.821Z,55.20
2019-03-05T02:28:16.167Z,55.80
2019-03-05T02:31:07.933Z,55.40
2019-03-05T02:34:02.387Z,55.40
2019-03-05T02:36:37.105Z,55.40
2019-03-05T02:39:28.425Z,55.50
2019-03-05T02:42:14.280Z,55.40
2019-03-05T02:45:05.845Z,55.40
2019-03-05T02:48:02.351Z,55.40
2019-03-05T02:50:57.711Z,55.50
2019-03-05T02:54:05.037Z,55.60
2019-03-05T02:56:41.678Z,55.70
2019-03-05T02:59:09.591Z,55.70
2019-03-05T03:01:56.682Z,55.80
2019-03-05T03:04:30.488Z,55.80
2019-03-05T03:06:59.857Z,55.80
2019-03-05T03:09:33.849Z,55.90
2019-03-05T03:12:04.759Z,56.10
2019-03-05T03:14:34.138Z,56.10
2019-03-05T03:17:03.555Z,56.20
2019-03-05T03:19:32.922Z,56.30
2019-03-05T03:22:02.751Z,56.40
2019-03-05T03:24:32.135Z,56.80
2019-03-05T03:27:01.508Z,56.50
2019-03-05T03:29:30.880Z,56.50
2019-03-05T03:32:00.260Z,56.50
2019-03-05T03:34:29.618Z,56.50
2019-03-05T03:36:58.990Z,56.70
2019-03-05T03:39:28.379Z,56.60
2019-03-05T03:41:58.128Z,56.70
2019-03-05T03:44:27.835Z,56.70
2019-03-05T03:46:57.241Z,56.70
2019-03-05T03:49:26.607Z,56.80
2019-03-05T03:51:56.045Z,56.70
2019-03-05T03:54:25.440Z,56.70
2019-03-05T03:56:54.804Z,56.70
2019-03-05T03:59:24.162Z,56.70
2019-03-05T04:01:53.878Z,56.80
2019-03-05T04:04:23.235Z,56.70
2019-03-05T04:06:52.682Z,56.80
2019-03-05T04:09:22.069Z,56.80
2019-03-05T04:11:51.442Z,56.90
2019-03-05T04:14:20.813Z,56.90
2019-03-05T04:16:50.192Z,56.80
2019-03-05T04:19:21.192Z,57.00
2019-03-05T04:21:50.903Z,57.00
2019-03-05T04:24:20.529Z,57.00
2019-03-05T04:26:49.912Z,57.00
2019-03-05T04:29:19.261Z,57.00
2019-03-05T04:31:48.655Z,57.10
2019-03-05T04:34:18.326Z,57.30
2019-03-05T04:36:47.687Z,57.30
2019-03-05T04:39:17.029Z,57.50
2019-03-05T04:41:46.406Z,57.50
2019-03-05T04:44:17.406Z,57.70
2019-03-05T04:46:48.722Z,57.90
2019-03-05T04:49:22.700Z,57.90
2019-03-05T04:51:59.897Z,58.10
2019-03-05T04:54:29.276Z,58.30
2019-03-05T04:56:58.644Z,58.40
2019-03-05T04:59:28.079Z,58.60
2019-03-05T05:01:57.393Z,58.60
2019-03-05T05:04:26.775Z,58.80
2019-03-05T05:06:56.323Z,58.80
2019-03-05T05:09:25.684Z,59.00
2019-03-05T05:11:55.057Z,58.80
2019-03-05T05:14:24.425Z,59.10
2019-03-05T05:16:53.791Z,59.00
2019-03-05T05:19:23.162Z,59.00
2019-03-05T05:21:52.548Z,59.10
2019-03-05T05:24:22.058Z,59.00
2019-03-05T05:26:51.436Z,59.20
2019-03-05T05:29:21.482Z,59.80
2019-03-05T05:31:50.862Z,59.20
2019-03-05T05:34:20.267Z,59.30
2019-03-05T05:36:49.652Z,59.50
2019-03-05T05:40:14.108Z,59.40
2019-03-05T05:42:43.481Z,59.50
2019-03-05T05:45:19.314Z,59.60
2019-03-05T05:47:48.623Z,59.80
2019-03-05T05:50:18.608Z,59.80
2019-03-05T05:52:47.956Z,59.90
2019-03-05T05:55:17.326Z,59.80
2019-03-05T05:57:46.717Z,60.00
2019-03-05T06:00:19.076Z,60.10
2019-03-05T06:02:48.462Z,60.70
2019-03-05T06:05:17.844Z,60.00
2019-03-05T06:07:47.217Z,60.10
2019-03-05T06:10:16.658Z,60.00
2019-03-05T06:12:46.100Z,60.00
2019-03-05T06:15:16.703Z,59.90
2019-03-05T06:17:46.079Z,59.80
2019-03-05T06:20:16.976Z,60.00
2019-03-05T06:22:46.340Z,59.70
2019-03-05T06:25:16.262Z,59.70
2019-03-05T06:27:45.866Z,59.60
2019-03-05T06:30:30.790Z,59.50
2019-03-05T06:33:00.192Z,59.60
2019-03-05T06:35:29.577Z,59.50
2019-03-05T06:37:58.943Z,59.50
2019-03-05T06:40:32.636Z,59.80
2019-03-05T06:43:02.022Z,59.50
2019-03-05T06:45:31.364Z,59.50
2019-03-05T06:48:00.776Z,59.40
2019-03-05T06:50:30.419Z,59.20
2019-03-05T06:52:59.785Z,59.40
2019-03-05T06:55:29.165Z,59.30
2019-03-05T06:57:58.550Z,59.20
2019-03-05T07:00:37.173Z,59.10
2019-03-05T07:03:09.068Z,59.00
2019-03-05T07:06:33.106Z,59.00
2019-03-05T07:09:16.165Z,59.10
2019-03-05T07:11:52.794Z,59.20
2019-03-05T07:14:35.087Z,59.10
2019-03-05T07:17:26.829Z,59.10
2019-03-05T07:20:06.613Z,59.00
2019-03-05T07:22:52.572Z,58.80
2019-03-05T07:25:21.945Z,58.70
2019-03-05T07:27:51.313Z,58.60
2019-03-05T07:30:21.642Z,58.60
2019-03-05T07:32:51.031Z,58.40
2019-03-05T07:35:21.166Z,58.30
2019-03-05T07:37:50.541Z,58.10
2019-03-05T07:40:19.910Z,57.80
2019-03-05T07:42:49.274Z,57.90
2019-03-05T07:45:19.209Z,57.40
2019-03-05T07:47:48.602Z,57.40
2019-03-05T07:50:18.010Z,57.00
2019-03-05T07:52:47.332Z,57.00
2019-03-05T07:55:17.323Z,56.60
2019-03-05T07:57:46.694Z,56.90
2019-03-05T08:00:20.918Z,56.70
2019-03-05T08:02:49.555Z,56.30
2019-03-05T08:05:18.879Z,56.90
2019-03-05T08:07:48.363Z,56.10
2019-03-05T08:10:30.260Z,55.80
2019-03-05T08:13:19.015Z,56.50
2019-03-05T08:16:13.161Z,55.80
2019-03-05T08:18:42.586Z,55.80
2019-03-05T08:21:11.944Z,56.10
2019-03-05T08:23:41.380Z,55.80
2019-03-05T08:26:10.771Z,55.60
2019-03-05T08:28:40.147Z,55.40
2019-03-05T08:31:09.897Z,55.30
2019-03-05T08:33:39.268Z,55.00
2019-03-05T08:36:08.639Z,54.80
2019-03-05T08:38:38.004Z,54.60
2019-03-05T08:41:07.806Z,54.50
2019-03-05T08:43:37.174Z,54.70
2019-03-05T08:46:06.603Z,54.30
2019-03-05T08:48:35.996Z,54.60
2019-03-05T08:51:05.375Z,54.40
2019-03-05T08:53:34.735Z,54.50
2019-03-05T08:56:05.081Z,54.20
2019-03-05T08:58:34.457Z,54.40
2019-03-05T09:01:04.811Z,53.70
2019-03-05T09:03:34.657Z,53.60
2019-03-05T09:06:04.257Z,53.20
2019-03-05T09:08:33.672Z,53.20
2019-03-05T09:11:03.120Z,53.20
2019-03-05T09:13:33.270Z,53.20
2019-03-05T09:16:02.705Z,53.00
2019-03-05T09:18:32.078Z,52.10
2019-03-05T09:21:01.453Z,52.40
2019-03-05T09:23:30.809Z,52.40
2019-03-05T09:26:00.222Z,52.50
2019-03-05T09:28:29.590Z,52.50
2019-03-05T09:30:58.987Z,52.10
2019-03-05T09:33:28.366Z,52.20
2019-03-05T09:35:57.736Z,52.30
2019-03-05T09:38:27.095Z,52.40
2019-03-05T09:40:56.513Z,52.30
2019-03-05T09:43:25.899Z,51.90
2019-03-05T09:45:55.440Z,51.80
2019-03-05T09:48:25.363Z,52.10
2019-03-05T09:50:54.743Z,52.30
2019-03-05T09:53:24.109Z,52.50
2019-03-05T09:55:53.499Z,52.00
2019-03-05T09:58:22.871Z,52.10
2019-03-05T10:00:52.234Z,52.20
2019-03-05T10:03:21.610Z,52.60
2019-03-05T10:05:50.982Z,53.00
2019-03-05T10:08:31.616Z,53.30
2019-03-05T10:10:52.222Z,53.30
2019-03-05T10:13:21.653Z,53.40
2019-03-05T10:15:53.375Z,53.50
2019-03-05T10:18:22.150Z,53.70
2019-03-05T10:20:51.520Z,53.40
2019-03-05T10:23:21.199Z,53.60
2019-03-05T10:25:50.570Z,53.90
2019-03-05T10:28:19.934Z,53.90
2019-03-05T10:30:49.305Z,53.40
2019-03-05T10:33:19.444Z,53.40
2019-03-05T10:35:48.817Z,53.10
2019-03-05T10:38:18.184Z,52.70
2019-03-05T10:40:52.147Z,52.60
2019-03-05T10:43:27.411Z,52.20
2019-03-05T10:45:56.775Z,52.30
2019-03-05T10:48:26.859Z,52.20
2019-03-05T10:50:56.363Z,51.50
2019-03-05T10:53:26.026Z,51.00
2019-03-05T10:55:55.399Z,51.10
2019-03-05T10:58:33.264Z,50.90
2019-03-05T11:00:57.893Z,51.00
2019-03-05T11:03:30.966Z,50.40
2019-03-05T11:06:00.949Z,50.80
2019-03-05T11:08:30.328Z,50.00
2019-03-05T11:11:12.732Z,49.80
2019-03-05T11:13:32.527Z,49.10
2019-03-05T11:16:05.215Z,49.50
2019-03-05T11:18:36.332Z,49.70
2019-03-05T11:21:07.144Z,49.50
2019-03-05T11:23:36.550Z,48.80
2019-03-05T11:26:06.004Z,48.70
2019-03-05T11:28:35.375Z,48.60
2019-03-05T11:31:05.471Z,48.40
2019-03-05T11:33:34.846Z,48.50
2019-03-05T11:36:04.219Z,48.90
2019-03-05T11:38:33.873Z,49.20
2019-03-05T11:41:03.625Z,48.90
2019-03-05T11:43:32.982Z,48.90
2019-03-05T11:46:02.352Z,48.90
2019-03-05T11:48:31.722Z,48.80
2019-03-05T11:51:01.096Z,48.70
2019-03-05T11:53:30.478Z,48.70
2019-03-05T11:55:59.860Z,48.30
2019-03-05T11:58:29.231Z,48.20
2019-03-05T12:01:00.239Z,47.70
2019-03-05T12:03:30.193Z,47.90
2019-03-05T12:05:59.566Z,48.00
2019-03-05T12:08:28.926Z,47.80
2019-03-05T12:10:58.330Z,48.00
2019-03-05T12:13:27.902Z,48.00
2019-03-05T12:15:57.392Z,48.20
2019-03-05T12:18:26.788Z,47.80
2019-03-05T12:20:56.155Z,48.10
2019-03-05T12:23:25.525Z,48.10
2019-03-05T12:25:55.479Z,47.80
2019-03-05T12:28:24.831Z,47.90
2019-03-05T12:30:54.199Z,47.10
2019-03-05T12:33:23.569Z,47.70
2019-03-05T12:35:52.940Z,47.90
2019-03-05T12:38:22.307Z,47.90
2019-03-05T12:40:51.885Z,48.10
2019-03-05T12:43:22.071Z,48.50
2019-03-05T12:45:51.443Z,48.60
2019-03-05T12:48:21.068Z,48.50
2019-03-05T12:50:50.440Z,47.90
2019-03-05T12:53:19.821Z,48.10
2019-03-05T12:55:49.185Z,47.90
2019-03-05T12:58:18.542Z,48.40
2019-03-05T13:00:47.918Z,48.00
2019-03-05T13:03:17.327Z,48.70
2019-03-05T13:05:46.681Z,48.30
2019-03-05T13:08:16.071Z,48.20
2019-03-05T13:10:46.001Z,48.50
2019-03-05T13:13:15.610Z,48.70
2019-03-05T13:15:45.023Z,49.80
2019-03-05T13:18:14.501Z,49.50
2019-03-05T13:20:43.846Z,50.00
2019-03-05T13:23:13.227Z,50.10
2019-03-05T13:25:42.636Z,50.60
2019-03-05T13:28:12.299Z,51.20
2019-03-05T13:30:41.662Z,52.00
2019-03-05T13:33:11.258Z,52.40
2019-03-05T13:35:40.639Z,52.80
2019-03-05T13:38:13.290Z,53.50
2019-03-05T13:40:42.653Z,53.90
2019-03-05T13:43:12.412Z,54.30
2019-03-05T13:45:49.156Z,54.00
2019-03-05T13:48:58.429Z,54.30
2019-03-05T13:52:03.644Z,53.80
2019-03-05T13:55:12.309Z,54.10
2019-03-05T13:57:54.998Z,53.60
2019-03-05T14:00:23.249Z,54.00
2019-03-05T14:03:05.900Z,53.80
2019-03-05T14:06:26.490Z,54.00
2019-03-05T14:09:13.526Z,53.40
2019-03-05T14:11:44.897Z,52.70
2019-03-05T14:14:23.844Z,51.50
2019-03-05T14:16:57.916Z,51.70
2019-03-05T14:19:27.301Z,51.70
2019-03-05T14:21:56.681Z,51.30
2019-03-05T14:24:26.672Z,51.30
2019-03-05T14:26:56.037Z,51.00
2019-03-05T14:29:25.687Z,51.00
2019-03-05T14:31:55.100Z,51.10
2019-03-05T14:34:24.436Z,51.20
2019-03-05T14:36:53.891Z,51.40
2019-03-05T14:39:29.971Z,51.40
2019-03-05T14:41:59.381Z,51.40
2019-03-05T14:44:39.483Z,51.70
2019-03-05T14:47:05.870Z,51.90
2019-03-05T14:49:35.248Z,52.10
2019-03-05T14:52:05.439Z,52.00
2019-03-05T14:54:35.222Z,51.60
2019-03-05T14:57:04.559Z,51.60
2019-03-05T14:59:33.928Z,51.40
2019-03-05T15:02:03.340Z,51.10
2019-03-05T15:04:35.673Z,51.10
2019-03-05T15:07:05.247Z,51.20
2019-03-05T15:09:34.595Z,51.20
2019-03-05T15:12:03.990Z,50.80
2019-03-05T15:14:33.400Z,51.00
2019-03-05T15:17:03.191Z,50.60
2019-03-05T15:19:34.618Z,50.50
2019-03-05T15:22:03.702Z,50.20
2019-03-05T15:24:33.144Z,50.20
2019-03-05T15:27:21.880Z,50.30
2019-03-05T15:29:51.210Z,50.50
2019-03-05T15:32:20.627Z,50.20
2019-03-05T15:34:50.037Z,50.80
2019-03-05T15:37:20.048Z,50.50
2019-03-05T15:39:49.379Z,50.80
2019-03-05T15:42:18.764Z,51.00
2019-03-05T15:44:48.143Z,51.00
2019-03-05T15:47:17.507Z,50.80
2019-03-05T15:49:47.187Z,50.10
2019-03-05T15:52:16.585Z,50.20
2019-03-05T15:54:45.948Z,50.30
2019-03-05T15:57:15.303Z,50.70
2019-03-05T15:59:45.426Z,50.80
2019-03-05T16:02:15.033Z,51.00
2019-03-05T16:04:44.536Z,51.50
2019-03-05T16:07:13.997Z,51.80
2019-03-05T16:09:44.043Z,52.00
2019-03-05T16:12:13.505Z,52.40
2019-03-05T16:14:42.897Z,52.40
2019-03-05T16:17:12.260Z,52.80
2019-03-05T16:19:41.633Z,53.10
2019-03-05T16:22:14.214Z,53.20
2019-03-05T16:24:42.460Z,53.50
2019-03-05T16:27:11.848Z,53.70
2019-03-05T16:29:41.225Z,53.90
2019-03-05T16:32:15.311Z,54.40
2019-03-05T16:35:01.359Z,55.80
2019-03-05T16:37:32.377Z,56.80
2019-03-05T16:40:12.261Z,56.90
2019-03-05T16:42:45.977Z,57.50
2019-03-05T16:45:28.744Z,58.30
2019-03-05T16:48:05.515Z,59.00
2019-03-05T16:50:36.538Z,59.00
2019-03-05T16:53:24.575Z,59.20
2019-03-05T16:55:58.730Z,59.70
2019-03-05T16:58:46.618Z,60.20
2019-03-05T17:01:26.568Z,61.30
2019-03-05T17:04:12.684Z,61.80
2019-03-05T17:06:43.836Z,61.90
2019-03-05T17:09:14.978Z,62.20
2019-03-05T17:11:51.908Z,62.90
2019-03-05T17:14:21.606Z,63.10
2019-03-05T17:16:51.044Z,63.50
2019-03-05T17:19:20.425Z,63.10
2019-03-05T17:21:49.878Z,63.70
2019-03-05T17:24:20.258Z,64.00
2019-03-05T17:26:49.710Z,63.70
2019-03-05T17:29:19.077Z,63.70
2019-03-05T17:31:48.443Z,64.00
2019-03-05T17:34:17.805Z,64.20
2019-03-05T17:36:47.299Z,64.00
2019-03-05T17:39:18.850Z,64.50
2019-03-05T17:41:48.211Z,64.50
2019-03-05T17:44:17.586Z,64.60
2019-03-05T17:46:47.233Z,64.70
2019-03-05T17:49:16.599Z,64.60
2019-03-05T17:51:45.974Z,64.20
2019-03-05T17:54:15.897Z,64.80
2019-03-05T17:56:45.513Z,64.80
2019-03-05T17:59:15.347Z,64.80
2019-03-05T18:01:44.720Z,65.00
2019-03-05T18:04:14.110Z,64.90
2019-03-05T18:06:43.489Z,65.00
2019-03-05T18:09:13.036Z,65.10
2019-03-05T18:11:42.439Z,65.20
2019-03-05T18:14:11.820Z,65.30
2019-03-05T18:16:41.180Z,65.30
2019-03-05T18:19:10.550Z,65.50
2019-03-05T18:21:40.399Z,65.40
2019-03-05T18:24:09.754Z,65.10
2019-03-05T18:26:39.122Z,65.40
2019-03-05T18:29:08.507Z,65.60
2019-03-05T18:31:37.877Z,65.60
2019-03-05T18:34:07.317Z,65.60
2019-03-05T18:36:36.715Z,65.80
2019-03-05T18:39:06.836Z,65.90
2019-03-05T18:41:36.210Z,66.00
2019-03-05T18:44:06.266Z,65.80
2019-03-05T18:46:35.844Z,65.90
2019-03-05T18:49:05.213Z,66.20
2019-03-05T18:51:34.641Z,66.10
2019-03-05T18:54:03.985Z,66.60
2019-03-05T18:56:33.851Z,66.50
2019-03-05T18:59:03.238Z,66.40
2019-03-05T19:01:32.602Z,66.40
2019-03-05T19:04:01.975Z,66.50
2019-03-05T19:06:31.685Z,66.50
2019-03-05T19:09:01.325Z,66.50
2019-03-05T19:11:30.764Z,66.70
2019-03-05T19:14:00.135Z,66.50
2019-03-05T19:16:29.512Z,66.50
2019-03-05T19:18:58.900Z,66.00
2019-03-05T19:21:28.274Z,66.40
2019-03-05T19:23:57.914Z,66.50
2019-03-05T19:26:27.360Z,66.40
2019-03-05T19:28:57.027Z,66.60
2019-03-05T19:31:26.436Z,66.40
2019-03-05T19:33:55.797Z,66.50
2019-03-05T19:36:25.182Z,66.30
2019-03-05T19:38:54.541Z,66.30
2019-03-05T19:41:23.921Z,66.70
2019-03-05T19:43:53.297Z,67.00
2019-03-05T19:46:22.667Z,67.00
2019-03-05T19:48:52.030Z,67.80
2019-03-05T19:51:21.872Z,67.10
2019-03-05T19:53:51.257Z,67.30
2019-03-05T19:56:20.898Z,67.50
2019-03-05T19:58:50.955Z,68.00
2019-03-05T20:01:21.999Z,68.00
2019-03-05T20:03:51.347Z,68.10
2019-03-05T20:06:20.733Z,68.20
2019-03-05T20:08:50.472Z,68.10
2019-03-05T20:11:19.783Z,68.20
2019-03-05T20:13:49.626Z,68.20
2019-03-05T20:16:19.000Z,68.90
2019-03-05T20:18:48.362Z,68.30
2019-03-05T20:21:17.736Z,68.50
2019-03-05T20:23:47.107Z,68.50
2019-03-05T20:26:16.482Z,68.70
2019-03-05T20:28:45.854Z,68.50
2019-03-05T20:31:15.238Z,68.50
2019-03-05T20:33:44.591Z,68.70
2019-03-05T20:36:14.081Z,68.70
2019-03-05T20:38:43.435Z,68.50
2019-03-05T20:41:12.801Z,68.70
2019-03-05T20:43:42.261Z,68.60
2019-03-05T20:46:16.374Z,68.50
2019-03-05T20:48:45.753Z,68.50
2019-03-05T20:51:15.545Z,68.50
2019-03-05T20:53:44.912Z,68.70
2019-03-05T20:56:14.353Z,68.60
2019-03-05T20:58:43.727Z,68.80
2019-03-05T21:01:14.453Z,68.90
2019-03-05T21:03:43.808Z,69.00
2019-03-05T21:06:13.198Z,69.00
2019-03-05T21:08:42.569Z,69.00
2019-03-05T21:11:11.924Z,69.30
2019-03-05T21:13:41.702Z,69.40
2019-03-05T21:16:11.397Z,69.50
2019-03-05T21:18:40.797Z,69.40
2019-03-05T21:21:10.234Z,69.50
2019-03-05T21:23:39.608Z,69.50
2019-03-05T21:26:08.986Z,69.50
2019-03-05T21:28:38.381Z,69.60
2019-03-05T21:31:08.026Z,69.50
2019-03-05T21:33:37.398Z,69.60
2019-03-05T21:36:07.053Z,69.80
2019-03-05T21:38:36.428Z,69.80
2019-03-05T21:41:05.801Z,69.80
2019-03-05T21:43:35.252Z,69.80
2019-03-05T21:46:15.311Z,69.80
2019-03-05T21:48:44.686Z,69.90
2019-03-05T21:51:14.082Z,69.90
2019-03-05T21:53:43.522Z,69.90
2019-03-05T21:56:12.960Z,70.00
2019-03-05T21:58:42.323Z,70.00
2019-03-05T22:01:11.697Z,70.00
2019-03-05T22:03:41.614Z,70.20
2019-03-05T22:06:10.995Z,70.10
2019-03-05T22:08:40.357Z,70.10
2019-03-05T22:11:09.739Z,70.00
2019-03-05T22:13:39.407Z,70.10
2019-03-05T22:16:08.777Z,70.10
2019-03-05T22:18:38.431Z,70.00
2019-03-05T22:21:07.795Z,70.00
2019-03-05T22:23:37.243Z,70.00
2019-03-05T22:26:06.624Z,70.70
2019-03-05T22:28:36.273Z,70.10
2019-03-05T22:31:05.643Z,69.90
2019-03-05T22:33:35.070Z,69.90
2019-03-05T22:36:04.514Z,69.70
2019-03-05T22:38:33.890Z,69.60
2019-03-05T22:41:03.619Z,70.20
2019-03-05T22:43:33.008Z,69.50
2019-03-05T22:46:02.374Z,69.70
2019-03-05T22:48:31.751Z,69.60
2019-03-05T22:51:01.114Z,69.50
2019-03-05T22:53:30.488Z,69.60
2019-03-05T22:55:59.876Z,69.40
2019-03-05T22:58:29.239Z,69.50
2019-03-05T23:01:03.166Z,69.20
2019-03-05T23:03:33.464Z,69.10
2019-03-05T23:06:10.342Z,69.10
2019-03-05T23:08:39.800Z,69.20
2019-03-05T23:11:09.240Z,69.10
2019-03-05T23:13:38.619Z,69.20
2019-03-05T23:16:08.156Z,69.10
2019-03-05T23:18:37.522Z,69.10
2019-03-05T23:21:07.230Z,69.20
2019-03-05T23:23:36.692Z,69.10
2019-03-05T23:26:06.607Z,69.20
2019-03-05T23:28:36.546Z,69.30
2019-03-05T23:31:06.169Z,69.30
2019-03-05T23:33:35.532Z,69.00
2019-03-05T23:36:05.581Z,69.00
2019-03-05T23:38:35.252Z,69.00
2019-03-05T23:41:04.637Z,69.00
2019-03-05T23:43:34.051Z,69.00
2019-03-05T23:46:04.455Z,69.00
2019-03-05T23:48:34.131Z,69.00
2019-03-05T23:51:03.494Z,69.00
2019-03-05T23:53:32.877Z,69.00
2019-03-05T23:56:02.247Z,69.10
2019-03-05T23:58:31.620Z,68.90
